createdAt,value
2023-08-15T00:02:07.975Z,74.54
2023-08-15T00:04:34.129Z,73.54
2023-08-15T00:07:00.272Z,73.47
2023-08-15T00:09:26.457Z,74.37
2023-08-15T00:11:52.608Z,74.36
2023-08-15T00:14:18.814Z,74.80
2023-08-15T00:16:45.119Z,75.24
2023-08-15T00:19:11.656Z,74.66
2023-08-15T00:21:37.813Z,74.78
2023-08-15T00:24:03.974Z,73.29
2023-08-15T00:26:30.150Z,72.44
2023-08-15T00:28:56.322Z,73.00
2023-08-15T00:31:22.517Z,72.68
2023-08-15T00:33:48.672Z,73.16
2023-08-15T00:36:14.822Z,73.62
2023-08-15T00:38:40.992Z,72.81
2023-08-15T00:41:07.171Z,72.44
2023-08-15T00:43:33.334Z,72.73
2023-08-15T00:45:59.545Z,72.17
2023-08-15T00:48:25.763Z,73.16
2023-08-15T00:50:51.913Z,72.69
2023-08-15T00:53:18.063Z,72.67
2023-08-15T00:55:44.225Z,72.75
2023-08-15T00:58:10.374Z,71.99
2023-08-15T01:00:36.520Z,72.81
2023-08-15T01:03:02.719Z,73.52
2023-08-15T01:05:28.912Z,74.45
2023-08-15T01:07:55.051Z,74.17
2023-08-15T01:10:21.223Z,73.77
2023-08-15T01:12:47.398Z,73.50
2023-08-15T01:15:13.560Z,72.88
2023-08-15T01:17:39.744Z,73.06
2023-08-15T01:20:05.930Z,72.74
2023-08-15T01:22:32.087Z,73.45
2023-08-15T01:24:58.251Z,73.50
2023-08-15T01:27:24.420Z,73.46
2023-08-15T01:29:50.667Z,73.67
2023-08-15T01:32:16.862Z,73.36
2023-08-15T01:34:43.025Z,73.51
2023-08-15T01:37:09.188Z,73.52
2023-08-15T01:39:35.347Z,73.58
2023-08-15T01:42:01.521Z,73.65
2023-08-15T01:44:27.676Z,74.47
2023-08-15T01:46:53.831Z,73.57
2023-08-15T01:49:19.997Z,73.52
2023-08-15T01:51:46.198Z,74.45
2023-08-15T01:54:12.438Z,73.46
2023-08-15T01:56:38.599Z,74.79
2023-08-15T01:59:04.758Z,73.92
2023-08-15T02:01:30.965Z,72.80
2023-08-15T02:03:57.170Z,72.75
2023-08-15T02:06:23.331Z,72.24
2023-08-15T02:08:49.488Z,73.22
2023-08-15T02:11:15.685Z,73.06
2023-08-15T02:13:41.867Z,73.17
2023-08-15T02:16:08.045Z,72.79
2023-08-15T02:18:34.250Z,72.76
2023-08-15T02:21:00.419Z,72.83
2023-08-15T02:23:26.588Z,73.60
2023-08-15T02:25:52.757Z,73.10
2023-08-15T02:28:18.975Z,73.53
2023-08-15T02:30:45.147Z,74.12
2023-08-15T02:33:11.299Z,74.44
2023-08-15T02:35:37.456Z,74.28
2023-08-15T02:38:03.648Z,74.30
2023-08-15T02:40:29.817Z,74.49
2023-08-15T02:42:56.018Z,74.29
2023-08-15T02:45:22.168Z,74.02
2023-08-15T02:47:48.402Z,75.12
2023-08-15T02:50:14.576Z,74.80
2023-08-15T02:52:40.733Z,73.42
2023-08-15T02:55:06.892Z,74.40
2023-08-15T02:57:33.063Z,74.42
2023-08-15T02:59:59.225Z,73.86
2023-08-15T03:02:25.442Z,73.28
2023-08-15T03:04:51.660Z,73.31
2023-08-15T03:07:17.824Z,73.18
2023-08-15T03:09:43.991Z,74.03
2023-08-15T03:12:10.172Z,74.66
2023-08-15T03:14:36.321Z,74.52
2023-08-15T03:17:02.486Z,74.85
2023-08-15T03:19:28.628Z,74.84
2023-08-15T03:21:54.776Z,74.15
2023-08-15T03:24:20.911Z,74.03
2023-08-15T03:26:47.099Z,74.22
2023-08-15T03:29:13.277Z,74.60
2023-08-15T03:31:39.448Z,74.97
2023-08-15T03:34:05.647Z,74.59
2023-08-15T03:36:31.792Z,74.09
2023-08-15T03:38:57.948Z,74.62
2023-08-15T03:41:24.105Z,73.86
2023-08-15T03:43:50.261Z,73.43
2023-08-15T03:46:16.517Z,73.16
2023-08-15T03:48:42.753Z,73.28
2023-08-15T03:51:10.972Z,73.83
2023-08-15T03:53:37.333Z,74.34
2023-08-15T03:56:03.487Z,74.91
2023-08-15T03:58:29.646Z,75.68
2023-08-15T04:00:55.806Z,76.03
2023-08-15T04:03:21.979Z,76.00
2023-08-15T04:05:48.134Z,74.86
2023-08-15T04:08:14.312Z,74.83
2023-08-15T04:10:40.500Z,75.54
2023-08-15T04:13:06.696Z,74.85
2023-08-15T04:15:32.861Z,74.92
2023-08-15T04:17:59.140Z,74.43
2023-08-15T04:20:25.365Z,73.69
2023-08-15T04:22:51.517Z,74.49
2023-08-15T04:25:17.686Z,75.07
2023-08-15T04:27:43.875Z,75.48
2023-08-15T04:30:10.050Z,75.46
2023-08-15T04:32:36.261Z,75.37
2023-08-15T04:35:02.467Z,75.01
2023-08-15T04:37:28.633Z,73.65
2023-08-15T04:39:54.890Z,73.03
2023-08-15T04:42:21.064Z,73.63
2023-08-15T04:44:47.214Z,73.18
2023-08-15T04:47:13.365Z,74.61
2023-08-15T04:49:39.525Z,73.33
2023-08-15T04:52:05.703Z,73.72
2023-08-15T04:54:31.857Z,73.71
2023-08-15T04:56:58.023Z,74.04
2023-08-15T04:59:24.191Z,72.93
2023-08-15T05:01:50.420Z,72.78
2023-08-15T05:04:16.618Z,73.79
2023-08-15T05:06:42.796Z,73.67
2023-08-15T05:09:08.971Z,73.63
2023-08-15T05:11:35.134Z,74.07
2023-08-15T05:14:01.305Z,73.43
2023-08-15T05:16:27.461Z,73.77
2023-08-15T05:18:53.616Z,73.15
2023-08-15T05:21:19.798Z,73.23
2023-08-15T05:23:45.943Z,73.60
2023-08-15T05:26:12.107Z,73.58
2023-08-15T05:28:38.264Z,72.84
2023-08-15T05:31:04.547Z,72.56
2023-08-15T05:33:30.732Z,73.07
2023-08-15T05:35:56.891Z,72.98
2023-08-15T05:38:23.032Z,72.47
2023-08-15T05:40:49.186Z,72.82
2023-08-15T05:43:15.343Z,73.38
2023-08-15T05:45:41.557Z,72.90
2023-08-15T05:48:10.215Z,71.91
2023-08-15T05:50:38.114Z,71.87
2023-08-15T05:53:04.297Z,71.89
2023-08-15T05:55:30.461Z,72.31
2023-08-15T05:57:57.814Z,72.61
2023-08-15T06:00:24.062Z,72.82
2023-08-15T06:02:50.270Z,73.34
2023-08-15T06:05:16.448Z,73.29
2023-08-15T06:07:42.611Z,72.93
2023-08-15T06:10:08.769Z,73.00
2023-08-15T06:12:34.947Z,73.29
2023-08-15T06:15:01.109Z,72.88
2023-08-15T06:17:27.296Z,72.75
2023-08-15T06:19:53.491Z,73.29
2023-08-15T06:22:19.637Z,71.99
2023-08-15T06:24:45.812Z,70.43
2023-08-15T06:27:11.962Z,69.27
2023-08-15T06:29:38.113Z,69.43
2023-08-15T06:32:04.276Z,68.52
2023-08-15T06:34:30.489Z,70.34
2023-08-15T06:36:56.680Z,69.72
2023-08-15T06:39:22.841Z,69.55
2023-08-15T06:41:49.012Z,70.26
2023-08-15T06:44:15.197Z,69.20
2023-08-15T06:46:41.433Z,69.80
2023-08-15T06:49:07.615Z,68.67
2023-08-15T06:51:33.780Z,67.89
2023-08-15T06:54:00.408Z,69.18
2023-08-15T06:56:26.639Z,69.33
2023-08-15T06:58:52.828Z,68.43
2023-08-15T07:01:19.115Z,67.28
2023-08-15T07:03:45.494Z,63.65
2023-08-15T07:06:11.685Z,64.43
2023-08-15T07:08:37.856Z,66.08
2023-08-15T07:11:06.196Z,66.41
2023-08-15T07:13:32.666Z,66.04
2023-08-15T07:15:59.035Z,64.23
2023-08-15T07:18:25.381Z,66.48
2023-08-15T07:20:51.580Z,67.74
2023-08-15T07:23:17.748Z,66.13
2023-08-15T07:25:43.963Z,64.53
2023-08-15T07:28:10.113Z,63.60
2023-08-15T07:30:36.272Z,63.41
2023-08-15T07:33:02.567Z,61.27
2023-08-15T07:35:28.801Z,60.94
2023-08-15T07:37:55.012Z,62.04
2023-08-15T07:40:21.169Z,60.56
2023-08-15T07:42:47.345Z,59.55
2023-08-15T07:45:14.084Z,60.15
2023-08-15T07:47:40.302Z,60.75
2023-08-15T07:50:06.476Z,61.67
2023-08-15T07:52:32.657Z,59.08
2023-08-15T07:54:58.815Z,58.06
2023-08-15T07:57:25.146Z,56.82
2023-08-15T07:59:51.287Z,53.74
2023-08-15T08:02:17.438Z,54.37
2023-08-15T08:04:43.619Z,53.87
2023-08-15T08:07:09.824Z,54.90
2023-08-15T08:09:35.993Z,56.69
2023-08-15T08:12:02.171Z,57.22
2023-08-15T08:14:28.330Z,54.68
2023-08-15T08:16:54.483Z,54.71
2023-08-15T08:19:20.653Z,53.35
2023-08-15T08:21:46.840Z,53.13
2023-08-15T08:24:12.998Z,51.95
2023-08-15T08:26:39.168Z,51.80
2023-08-15T08:29:05.332Z,54.23
2023-08-15T08:31:31.515Z,53.47
2023-08-15T08:33:57.686Z,51.17
2023-08-15T08:36:23.865Z,50.65
2023-08-15T08:38:50.044Z,50.33
2023-08-15T08:41:16.210Z,48.08
2023-08-15T08:43:42.377Z,48.47
2023-08-15T08:46:08.614Z,46.50
2023-08-15T08:48:36.445Z,47.48
2023-08-15T08:51:03.527Z,47.90
2023-08-15T08:53:29.694Z,48.22
2023-08-15T08:55:55.961Z,48.77
2023-08-15T08:58:22.139Z,46.86
2023-08-15T09:00:48.327Z,48.74
2023-08-15T09:03:14.625Z,48.68
2023-08-15T09:05:40.921Z,48.81
2023-08-15T09:08:07.099Z,50.18
2023-08-15T09:10:33.245Z,50.83
2023-08-15T09:12:59.415Z,50.87
2023-08-15T09:15:25.586Z,49.06
2023-08-15T09:17:51.792Z,48.40
2023-08-15T09:20:17.972Z,47.45
2023-08-15T09:22:44.151Z,45.73
2023-08-15T09:25:10.295Z,45.24
2023-08-15T09:27:36.477Z,48.04
2023-08-15T09:30:02.649Z,48.46
2023-08-15T09:32:28.917Z,45.76
2023-08-15T09:34:55.247Z,43.82
2023-08-15T09:37:21.864Z,43.47
2023-08-15T09:39:48.254Z,43.03
2023-08-15T09:42:14.416Z,44.66
2023-08-15T09:44:40.704Z,42.74
2023-08-15T09:47:06.951Z,40.85
2023-08-15T09:49:33.147Z,40.27
2023-08-15T09:51:59.296Z,40.79
2023-08-15T09:54:25.515Z,40.37
2023-08-15T09:56:51.685Z,41.43
2023-08-15T09:59:18.837Z,40.51
2023-08-15T10:01:45.056Z,41.78
2023-08-15T10:04:11.208Z,41.88
2023-08-15T10:06:37.379Z,40.72
2023-08-15T10:09:03.530Z,42.16
2023-08-15T10:11:29.679Z,40.86
2023-08-15T10:13:55.846Z,38.67
2023-08-15T10:16:22.191Z,38.34
2023-08-15T10:18:48.398Z,39.13
2023-08-15T10:21:14.572Z,38.33
2023-08-15T10:23:40.733Z,35.67
2023-08-15T10:26:06.905Z,36.18
2023-08-15T10:28:33.082Z,35.66
2023-08-15T10:30:59.369Z,35.69
2023-08-15T10:33:25.567Z,36.24
2023-08-15T10:35:51.725Z,34.62
2023-08-15T10:38:17.885Z,35.87
2023-08-15T10:40:44.100Z,35.61
2023-08-15T10:43:10.271Z,36.94
2023-08-15T10:45:36.461Z,35.99
2023-08-15T10:48:05.002Z,38.23
2023-08-15T10:50:32.281Z,36.97
2023-08-15T10:52:58.459Z,38.08
2023-08-15T10:55:24.607Z,38.21
2023-08-15T10:57:50.767Z,41.80
2023-08-15T11:00:16.927Z,43.63
2023-08-15T11:02:43.135Z,42.92
2023-08-15T11:05:09.389Z,43.01
2023-08-15T11:07:35.580Z,42.27
2023-08-15T11:10:01.740Z,40.60
2023-08-15T11:12:27.908Z,41.01
2023-08-15T11:14:54.080Z,41.21
2023-08-15T11:17:20.442Z,41.10
2023-08-15T11:19:46.792Z,39.34
2023-08-15T11:22:12.950Z,40.01
2023-08-15T11:24:39.146Z,40.05
2023-08-15T11:27:05.307Z,40.32
2023-08-15T11:29:31.477Z,38.99
2023-08-15T11:31:57.700Z,37.90
2023-08-15T11:34:23.948Z,39.15
2023-08-15T11:36:50.098Z,39.90
2023-08-15T11:39:16.302Z,40.75
2023-08-15T11:41:42.463Z,40.73
2023-08-15T11:44:08.638Z,40.94
2023-08-15T11:46:51.221Z,41.47
2023-08-15T11:49:20.495Z,40.93
2023-08-15T11:51:46.676Z,41.96
2023-08-15T11:54:12.837Z,41.47
2023-08-15T11:56:39.000Z,42.44
2023-08-15T11:59:05.180Z,42.53
2023-08-15T12:01:31.413Z,42.09
2023-08-15T12:03:57.643Z,40.61
2023-08-15T12:06:23.808Z,42.86
2023-08-15T12:08:49.974Z,40.23
2023-08-15T12:11:16.137Z,39.12
2023-08-15T12:13:42.313Z,37.77
2023-08-15T12:16:08.498Z,38.08
2023-08-15T12:18:34.704Z,38.20
2023-08-15T12:21:00.880Z,38.06
2023-08-15T12:23:28.621Z,38.42
2023-08-15T12:25:55.455Z,37.66
2023-08-15T12:28:21.623Z,37.54
2023-08-15T12:30:47.798Z,38.61
2023-08-15T12:33:16.077Z,38.99
2023-08-15T12:35:48.391Z,38.60
2023-08-15T12:38:15.322Z,39.83
2023-08-15T12:40:41.485Z,39.31
2023-08-15T12:43:07.655Z,38.07
2023-08-15T12:45:33.845Z,36.93
2023-08-15T12:48:00.081Z,36.42
2023-08-15T12:50:26.303Z,36.29
2023-08-15T12:52:52.467Z,38.23
2023-08-15T12:55:18.616Z,37.21
2023-08-15T12:57:44.785Z,37.42
2023-08-15T13:00:10.947Z,38.15
2023-08-15T13:02:37.120Z,40.47
2023-08-15T13:05:04.843Z,42.03
2023-08-15T13:07:31.118Z,41.87
2023-08-15T13:09:57.277Z,42.38
2023-08-15T13:12:23.585Z,43.85
2023-08-15T13:14:49.938Z,46.89
2023-08-15T13:17:16.142Z,48.94
2023-08-15T13:19:42.319Z,49.70
2023-08-15T13:22:08.475Z,49.57
2023-08-15T13:24:34.673Z,50.29
2023-08-15T13:27:00.832Z,50.78
2023-08-15T13:29:27.016Z,51.36
2023-08-15T13:31:53.170Z,51.68
2023-08-15T13:34:19.321Z,51.71
2023-08-15T13:36:47.731Z,51.64
2023-08-15T13:39:13.884Z,51.96
2023-08-15T13:41:40.050Z,51.12
2023-08-15T13:44:06.242Z,51.03
2023-08-15T13:46:32.446Z,51.27
2023-08-15T13:48:58.668Z,51.31
2023-08-15T13:51:24.835Z,52.89
2023-08-15T13:53:50.991Z,52.80
2023-08-15T13:56:17.135Z,54.33
2023-08-15T13:58:43.297Z,55.34
2023-08-15T14:01:09.468Z,55.40
2023-08-15T14:03:35.710Z,54.80
2023-08-15T14:06:01.892Z,54.89
2023-08-15T14:08:28.107Z,52.74
2023-08-15T14:10:54.249Z,53.16
2023-08-15T14:13:20.490Z,53.29
2023-08-15T14:15:46.686Z,54.93
2023-08-15T14:18:12.960Z,54.60
2023-08-15T14:20:39.152Z,54.89
2023-08-15T14:23:05.319Z,54.61
2023-08-15T14:25:31.462Z,55.21
2023-08-15T14:27:57.612Z,54.38
2023-08-15T14:30:23.769Z,53.99
2023-08-15T14:32:49.959Z,54.83
2023-08-15T14:35:16.238Z,55.18
2023-08-15T14:37:42.430Z,54.09
2023-08-15T14:40:08.599Z,54.50
2023-08-15T14:42:34.765Z,55.84
2023-08-15T14:45:00.937Z,56.39
2023-08-15T14:47:27.136Z,57.72
2023-08-15T14:49:53.285Z,58.75
2023-08-15T14:52:19.505Z,61.22
2023-08-15T14:54:45.706Z,62.40
2023-08-15T14:57:11.853Z,62.96
2023-08-15T14:59:38.060Z,62.90
2023-08-15T15:02:04.312Z,62.79
2023-08-15T15:04:31.026Z,62.18
2023-08-15T15:06:57.208Z,62.84
2023-08-15T15:09:23.403Z,62.51
2023-08-15T15:11:49.591Z,62.23
2023-08-15T15:14:16.776Z,62.23
2023-08-15T15:16:43.905Z,60.66
2023-08-15T15:19:10.100Z,61.34
2023-08-15T15:21:36.257Z,60.14
2023-08-15T15:24:02.550Z,59.95
2023-08-15T15:26:28.701Z,58.25
2023-08-15T15:28:54.969Z,58.37
2023-08-15T15:31:21.214Z,58.27
2023-08-15T15:33:47.406Z,57.44
2023-08-15T15:36:13.573Z,57.10
2023-08-15T15:38:39.744Z,57.09
2023-08-15T15:41:05.925Z,56.76
2023-08-15T15:43:32.078Z,57.74
2023-08-15T15:45:58.289Z,57.33
2023-08-15T15:48:24.510Z,57.58
2023-08-15T15:50:50.674Z,56.84
2023-08-15T15:53:16.829Z,56.15
2023-08-15T15:55:42.994Z,55.88
2023-08-15T15:58:09.145Z,56.21
2023-08-15T16:00:35.312Z,56.25
2023-08-15T16:03:01.509Z,57.20
2023-08-15T16:05:27.747Z,56.99
2023-08-15T16:07:54.128Z,57.81
2023-08-15T16:10:20.285Z,58.52
2023-08-15T16:12:46.445Z,57.82
2023-08-15T16:15:12.631Z,56.35
2023-08-15T16:17:38.887Z,57.53
2023-08-15T16:20:05.139Z,57.49
2023-08-15T16:22:31.319Z,56.63
2023-08-15T16:27:23.653Z,56.36
2023-08-15T16:29:50.635Z,56.19
2023-08-15T16:32:18.487Z,57.31
2023-08-15T16:34:44.678Z,57.28
2023-08-15T16:37:10.867Z,56.68
2023-08-15T16:39:37.033Z,51.19
2023-08-15T16:42:03.233Z,53.81
2023-08-15T16:44:29.399Z,56.32
2023-08-15T16:46:55.591Z,57.67
2023-08-15T16:49:21.766Z,58.32
2023-08-15T16:51:47.948Z,56.59
2023-08-15T16:54:14.099Z,57.90
2023-08-15T16:56:40.255Z,57.97
2023-08-15T16:59:06.423Z,58.10
2023-08-15T17:01:32.587Z,57.42
2023-08-15T17:03:58.959Z,56.65
2023-08-15T17:06:25.216Z,54.23
2023-08-15T17:08:51.397Z,53.11
2023-08-15T17:11:17.555Z,53.95
2023-08-15T17:13:46.080Z,54.24
2023-08-15T17:16:13.427Z,54.94
2023-08-15T17:18:39.612Z,55.84
2023-08-15T17:21:05.766Z,54.77
2023-08-15T17:23:31.942Z,54.17
2023-08-15T17:25:58.119Z,51.59
2023-08-15T17:28:24.277Z,53.27
2023-08-15T17:30:50.497Z,55.60
2023-08-15T17:33:16.721Z,54.99
2023-08-15T17:35:42.874Z,55.18
2023-08-15T17:38:09.025Z,56.00
2023-08-15T17:40:35.215Z,55.23
2023-08-15T17:43:01.383Z,55.88
2023-08-15T17:45:27.550Z,56.04
2023-08-15T17:47:53.783Z,56.56
2023-08-15T17:50:19.958Z,56.73
2023-08-15T17:52:46.144Z,55.56
2023-08-15T17:55:12.307Z,55.46
2023-08-15T17:57:38.478Z,55.94
2023-08-15T18:00:04.645Z,56.64
2023-08-15T18:02:30.814Z,56.15
2023-08-15T18:04:56.978Z,53.68
2023-08-15T18:07:23.164Z,54.25
2023-08-15T18:09:49.328Z,51.35
2023-08-15T18:12:15.472Z,54.16
2023-08-15T18:14:41.645Z,53.49
2023-08-15T18:17:07.805Z,54.89
2023-08-15T18:19:33.968Z,54.90
2023-08-15T18:22:00.206Z,53.73
2023-08-15T18:24:26.464Z,54.73
2023-08-15T18:26:52.624Z,55.00
2023-08-15T18:29:18.786Z,51.49
2023-08-15T18:31:44.985Z,53.78
2023-08-15T18:34:11.160Z,54.38
2023-08-15T18:36:37.358Z,55.07
2023-08-15T18:39:03.510Z,52.68
2023-08-15T18:41:29.660Z,54.67
2023-08-15T18:43:55.812Z,53.37
2023-08-15T18:46:22.021Z,54.26
2023-08-15T18:48:48.247Z,54.75
2023-08-15T18:51:14.397Z,55.18
2023-08-15T18:53:40.556Z,54.41
2023-08-15T18:56:06.725Z,54.54
2023-08-15T18:58:32.886Z,54.80
2023-08-15T19:00:59.044Z,55.44
2023-08-15T19:03:25.219Z,55.40
2023-08-15T19:05:51.434Z,55.29
2023-08-15T19:08:17.582Z,55.62
2023-08-15T19:10:43.751Z,55.69
2023-08-15T19:13:09.902Z,55.67
2023-08-15T19:15:36.112Z,54.40
2023-08-15T19:18:02.344Z,55.65
2023-08-15T19:20:28.617Z,55.52
2023-08-15T19:22:54.791Z,55.66
2023-08-15T19:25:20.939Z,56.08
2023-08-15T19:27:47.148Z,56.43
2023-08-15T19:30:13.303Z,56.02
2023-08-15T19:32:39.511Z,55.50
2023-08-15T19:35:05.727Z,55.90
2023-08-15T19:37:37.904Z,57.43
2023-08-15T19:40:05.131Z,57.07
2023-08-15T19:42:31.312Z,57.71
2023-08-15T19:44:57.472Z,57.65
2023-08-15T19:47:23.636Z,56.17
2023-08-15T19:49:49.800Z,55.39
2023-08-15T19:52:15.969Z,56.58
2023-08-15T19:54:42.182Z,57.08
2023-08-15T19:57:08.401Z,56.59
2023-08-15T19:59:34.563Z,57.40
2023-08-15T20:02:00.757Z,57.96
2023-08-15T20:04:26.984Z,57.95
2023-08-15T20:06:53.160Z,58.20
2023-08-15T20:09:19.311Z,57.71
2023-08-15T20:11:45.459Z,57.71
2023-08-15T20:14:11.617Z,57.73
2023-08-15T20:16:37.869Z,58.01
2023-08-15T20:19:04.054Z,58.43
2023-08-15T20:21:30.227Z,57.72
2023-08-15T20:23:56.376Z,57.69
2023-08-15T20:26:22.537Z,57.36
2023-08-15T20:28:48.712Z,56.59
2023-08-15T20:31:14.916Z,57.27
2023-08-15T20:33:41.099Z,57.49
2023-08-15T20:36:07.242Z,58.22
2023-08-15T20:38:33.408Z,58.32
2023-08-15T20:40:59.579Z,58.18
2023-08-15T20:43:25.747Z,58.14
2023-08-15T20:45:51.914Z,58.06
2023-08-15T20:48:18.864Z,57.11
2023-08-15T20:50:45.063Z,56.52
2023-08-15T20:53:11.213Z,56.56
2023-08-15T20:55:37.365Z,56.36
2023-08-15T20:58:03.527Z,57.63
2023-08-15T21:00:29.706Z,58.92
2023-08-15T21:02:55.911Z,58.41
2023-08-15T21:05:22.115Z,58.39
2023-08-15T21:07:48.297Z,57.44
2023-08-15T21:10:14.486Z,58.67
2023-08-15T21:12:40.687Z,59.04
2023-08-15T21:15:06.858Z,59.03
2023-08-15T21:17:33.080Z,58.96
2023-08-15T21:19:59.274Z,58.36
2023-08-15T21:22:25.448Z,58.56
2023-08-15T21:24:51.618Z,57.23
2023-08-15T21:27:17.800Z,57.94
2023-08-15T21:29:43.958Z,58.11
2023-08-15T21:32:10.125Z,58.37
2023-08-15T21:34:36.294Z,58.36
2023-08-15T21:37:02.461Z,58.69
2023-08-15T21:39:28.626Z,58.59
2023-08-15T21:41:54.792Z,57.95
2023-08-15T21:44:20.933Z,57.68
2023-08-15T21:46:47.094Z,58.62
2023-08-15T21:49:13.251Z,58.38
2023-08-15T21:51:39.398Z,58.39
2023-08-15T21:54:05.561Z,58.94
2023-08-15T21:56:31.920Z,58.99
2023-08-15T21:58:58.142Z,58.31
2023-08-15T22:01:24.310Z,57.27
2023-08-15T22:03:50.678Z,58.95
2023-08-15T22:06:16.936Z,59.32
2023-08-15T22:08:43.145Z,59.29
2023-08-15T22:11:09.314Z,59.31
2023-08-15T22:13:35.492Z,59.46
2023-08-15T22:16:01.687Z,59.96
2023-08-15T22:18:28.018Z,59.40
2023-08-15T22:20:54.262Z,59.74
2023-08-15T22:23:20.410Z,59.61
2023-08-15T22:25:46.570Z,58.92
2023-08-15T22:28:12.721Z,58.38
2023-08-15T22:30:38.881Z,57.60
2023-08-15T22:33:05.121Z,57.64
2023-08-15T22:35:31.333Z,57.71
2023-08-15T22:37:57.489Z,57.89
2023-08-15T22:40:23.640Z,58.47
2023-08-15T22:42:49.800Z,58.55
2023-08-15T22:45:15.966Z,58.86
2023-08-15T22:47:42.197Z,59.33
2023-08-15T22:50:08.394Z,59.52
2023-08-15T22:52:34.627Z,59.81
2023-08-15T22:55:00.797Z,60.67
2023-08-15T22:57:28.031Z,61.21
2023-08-15T22:59:54.189Z,61.60
2023-08-15T23:02:20.352Z,61.78
2023-08-15T23:04:46.531Z,62.26
2023-08-15T23:07:12.729Z,62.16
2023-08-15T23:09:38.905Z,61.24
2023-08-15T23:12:05.049Z,60.09
2023-08-15T23:14:31.188Z,59.47
2023-08-15T23:16:57.366Z,59.04
2023-08-15T23:19:23.532Z,59.79
2023-08-15T23:21:49.700Z,59.77
2023-08-15T23:24:15.858Z,60.53
2023-08-15T23:26:42.017Z,60.58
2023-08-15T23:29:08.176Z,60.81
2023-08-15T23:31:34.389Z,61.55
2023-08-15T23:34:00.601Z,61.34
2023-08-15T23:36:26.766Z,62.01
2023-08-15T23:38:52.951Z,61.98
2023-08-15T23:41:19.110Z,62.12
2023-08-15T23:43:45.284Z,62.26
2023-08-15T23:46:11.491Z,61.48
2023-08-15T23:48:37.717Z,60.37
2023-08-15T23:51:03.895Z,60.14
2023-08-15T23:53:30.046Z,60.61
2023-08-15T23:55:56.210Z,60.54
2023-08-15T23:58:22.378Z,58.76
